sensor_id;sensor_type;location;lat;lon;timestamp;P1;durP1;ratioP1;P2;durP2;ratioP2
28266;SDS011;15525;45.568;5.448;2024-02-26T00:01:58;4.05;;;1.70;;
28266;SDS011;15525;45.568;5.448;2024-02-26T00:04:23;1.63;;;1.20;;
28266;SDS011;15525;45.568;5.448;2024-02-26T00:06:49;1.83;;;1.30;;
28266;SDS011;15525;45.568;5.448;2024-02-26T00:09:16;3.00;;;1.50;;
28266;SDS011;15525;45.568;5.448;2024-02-26T00:11:42;2.03;;;1.50;;
28266;SDS011;15525;45.568;5.448;2024-02-26T00:14:07;2.72;;;1.58;;
28266;SDS011;15525;45.568;5.448;2024-02-26T00:16:32;2.38;;;1.55;;
28266;SDS011;15525;45.568;5.448;2024-02-26T00:18:58;3.05;;;1.65;;
28266;SDS011;15525;45.568;5.448;2024-02-26T00:21:23;2.00;;;1.50;;
28266;SDS011;15525;45.568;5.448;2024-02-26T00:23:49;3.35;;;1.45;;
28266;SDS011;15525;45.568;5.448;2024-02-26T00:26:15;2.80;;;1.55;;
28266;SDS011;15525;45.568;5.448;2024-02-26T00:28:41;2.47;;;1.27;;
28266;SDS011;15525;45.568;5.448;2024-02-26T00:31:06;2.30;;;1.50;;
28266;SDS011;15525;45.568;5.448;2024-02-26T00:33:32;2.08;;;1.35;;
28266;SDS011;15525;45.568;5.448;2024-02-26T00:35:57;1.98;;;1.40;;
28266;SDS011;15525;45.568;5.448;2024-02-26T00:38:22;2.20;;;1.17;;
28266;SDS011;15525;45.568;5.448;2024-02-26T00:40:48;1.95;;;1.20;;
28266;SDS011;15525;45.568;5.448;2024-02-26T00:43:13;4.15;;;1.20;;
28266;SDS011;15525;45.568;5.448;2024-02-26T00:45:39;1.10;;;1.00;;
28266;SDS011;15525;45.568;5.448;2024-02-26T00:48:04;1.70;;;1.10;;
28266;SDS011;15525;45.568;5.448;2024-02-26T00:50:30;1.77;;;1.10;;
28266;SDS011;15525;45.568;5.448;2024-02-26T00:52:56;1.42;;;0.90;;
28266;SDS011;15525;45.568;5.448;2024-02-26T00:55:21;1.60;;;1.15;;
28266;SDS011;15525;45.568;5.448;2024-02-26T00:57:47;1.63;;;1.10;;
28266;SDS011;15525;45.568;5.448;2024-02-26T01:00:12;1.30;;;0.93;;
28266;SDS011;15525;45.568;5.448;2024-02-26T01:02:38;1.48;;;1.00;;
28266;SDS011;15525;45.568;5.448;2024-02-26T01:05:04;1.25;;;1.10;;
28266;SDS011;15525;45.568;5.448;2024-02-26T01:07:31;1.65;;;1.10;;
28266;SDS011;15525;45.568;5.448;2024-02-26T01:10:00;2.78;;;1.10;;
28266;SDS011;15525;45.568;5.448;2024-02-26T01:12:26;1.65;;;1.02;;
28266;SDS011;15525;45.568;5.448;2024-02-26T01:14:52;1.20;;;1.10;;
28266;SDS011;15525;45.568;5.448;2024-02-26T01:17:17;1.23;;;1.00;;
28266;SDS011;15525;45.568;5.448;2024-02-26T01:19:43;2.65;;;1.30;;
28266;SDS011;15525;45.568;5.448;2024-02-26T01:22:10;2.38;;;1.42;;
28266;SDS011;15525;45.568;5.448;2024-02-26T01:24:35;1.17;;;1.08;;
28266;SDS011;15525;45.568;5.448;2024-02-26T01:27:01;1.55;;;1.10;;
28266;SDS011;15525;45.568;5.448;2024-02-26T01:29:26;1.98;;;1.10;;
28266;SDS011;15525;45.568;5.448;2024-02-26T01:31:51;1.67;;;1.05;;
28266;SDS011;15525;45.568;5.448;2024-02-26T01:34:17;2.75;;;1.13;;
28266;SDS011;15525;45.568;5.448;2024-02-26T01:36:43;1.27;;;1.17;;
28266;SDS011;15525;45.568;5.448;2024-02-26T01:39:09;0.93;;;0.90;;
28266;SDS011;15525;45.568;5.448;2024-02-26T01:41:37;1.95;;;1.20;;
28266;SDS011;15525;45.568;5.448;2024-02-26T01:44:03;1.50;;;1.10;;
28266;SDS011;15525;45.568;5.448;2024-02-26T01:46:29;2.83;;;1.52;;
28266;SDS011;15525;45.568;5.448;2024-02-26T01:48:56;2.10;;;1.40;;
28266;SDS011;15525;45.568;5.448;2024-02-26T01:51:23;1.92;;;1.40;;
28266;SDS011;15525;45.568;5.448;2024-02-26T01:53:48;1.80;;;1.33;;
28266;SDS011;15525;45.568;5.448;2024-02-26T01:56:14;1.75;;;1.40;;
28266;SDS011;15525;45.568;5.448;2024-02-26T01:58:42;1.80;;;1.40;;
28266;SDS011;15525;45.568;5.448;2024-02-26T02:01:08;2.50;;;1.50;;
28266;SDS011;15525;45.568;5.448;2024-02-26T02:03:34;1.35;;;1.20;;
28266;SDS011;15525;45.568;5.448;2024-02-26T02:06:01;2.10;;;1.17;;
28266;SDS011;15525;45.568;5.448;2024-02-26T02:08:27;3.70;;;1.55;;
28266;SDS011;15525;45.568;5.448;2024-02-26T02:10:53;1.70;;;1.60;;
28266;SDS011;15525;45.568;5.448;2024-02-26T02:13:18;1.85;;;1.50;;
28266;SDS011;15525;45.568;5.448;2024-02-26T02:15:43;2.30;;;1.48;;
28266;SDS011;15525;45.568;5.448;2024-02-26T02:18:09;1.73;;;1.50;;
28266;SDS011;15525;45.568;5.448;2024-02-26T02:20:34;1.70;;;1.50;;
28266;SDS011;15525;45.568;5.448;2024-02-26T02:23:01;1.83;;;1.40;;
28266;SDS011;15525;45.568;5.448;2024-02-26T02:25:27;1.95;;;1.50;;
28266;SDS011;15525;45.568;5.448;2024-02-26T02:27:53;1.65;;;1.40;;
28266;SDS011;15525;45.568;5.448;2024-02-26T02:30:24;3.38;;;1.88;;
28266;SDS011;15525;45.568;5.448;2024-02-26T02:32:51;2.33;;;1.90;;
28266;SDS011;15525;45.568;5.448;2024-02-26T02:35:17;2.22;;;1.80;;
28266;SDS011;15525;45.568;5.448;2024-02-26T02:37:42;1.60;;;1.50;;
28266;SDS011;15525;45.568;5.448;2024-02-26T02:40:08;3.45;;;1.48;;
28266;SDS011;15525;45.568;5.448;2024-02-26T02:42:33;1.33;;;1.23;;
28266;SDS011;15525;45.568;5.448;2024-02-26T02:44:59;2.20;;;1.40;;
28266;SDS011;15525;45.568;5.448;2024-02-26T02:47:24;2.35;;;1.48;;
28266;SDS011;15525;45.568;5.448;2024-02-26T02:49:50;2.35;;;1.30;;
28266;SDS011;15525;45.568;5.448;2024-02-26T02:52:15;1.42;;;1.02;;
28266;SDS011;15525;45.568;5.448;2024-02-26T02:54:40;1.70;;;1.08;;
28266;SDS011;15525;45.568;5.448;2024-02-26T02:57:07;1.45;;;1.27;;
28266;SDS011;15525;45.568;5.448;2024-02-26T02:59:34;3.28;;;1.40;;
28266;SDS011;15525;45.568;5.448;2024-02-26T03:02:00;1.55;;;1.35;;
28266;SDS011;15525;45.568;5.448;2024-02-26T03:04:25;2.03;;;1.40;;
28266;SDS011;15525;45.568;5.448;2024-02-26T03:06:50;1.98;;;1.50;;
28266;SDS011;15525;45.568;5.448;2024-02-26T03:09:16;7.60;;;1.30;;
28266;SDS011;15525;45.568;5.448;2024-02-26T03:11:41;3.45;;;1.50;;
28266;SDS011;15525;45.568;5.448;2024-02-26T03:14:07;1.80;;;1.48;;
28266;SDS011;15525;45.568;5.448;2024-02-26T03:16:32;1.73;;;1.35;;
28266;SDS011;15525;45.568;5.448;2024-02-26T03:18:58;1.45;;;1.35;;
28266;SDS011;15525;45.568;5.448;2024-02-26T03:21:25;3.00;;;1.33;;
28266;SDS011;15525;45.568;5.448;2024-02-26T03:23:50;1.45;;;1.05;;
28266;SDS011;15525;45.568;5.448;2024-02-26T03:26:16;1.73;;;1.40;;
28266;SDS011;15525;45.568;5.448;2024-02-26T03:28:41;2.13;;;1.25;;
28266;SDS011;15525;45.568;5.448;2024-02-26T03:31:07;1.75;;;1.30;;
28266;SDS011;15525;45.568;5.448;2024-02-26T03:33:32;1.35;;;1.00;;
28266;SDS011;15525;45.568;5.448;2024-02-26T03:35:58;3.08;;;1.50;;
28266;SDS011;15525;45.568;5.448;2024-02-26T03:38:23;2.72;;;1.90;;
28266;SDS011;15525;45.568;5.448;2024-02-26T03:40:49;2.92;;;1.90;;
28266;SDS011;15525;45.568;5.448;2024-02-26T03:43:16;1.92;;;1.50;;
28266;SDS011;15525;45.568;5.448;2024-02-26T03:45:42;2.20;;;1.73;;
28266;SDS011;15525;45.568;5.448;2024-02-26T03:48:07;1.58;;;1.20;;
28266;SDS011;15525;45.568;5.448;2024-02-26T03:50:33;2.15;;;1.80;;
28266;SDS011;15525;45.568;5.448;2024-02-26T03:52:59;1.80;;;1.60;;
28266;SDS011;15525;45.568;5.448;2024-02-26T03:55:25;1.40;;;1.30;;
28266;SDS011;15525;45.568;5.448;2024-02-26T03:57:51;2.25;;;1.50;;
28266;SDS011;15525;45.568;5.448;2024-02-26T04:00:17;1.73;;;1.10;;
28266;SDS011;15525;45.568;5.448;2024-02-26T04:02:42;1.30;;;1.15;;
28266;SDS011;15525;45.568;5.448;2024-02-26T04:05:11;1.92;;;1.30;;
28266;SDS011;15525;45.568;5.448;2024-02-26T04:07:36;2.13;;;1.30;;
28266;SDS011;15525;45.568;5.448;2024-02-26T04:10:02;1.70;;;1.45;;
28266;SDS011;15525;45.568;5.448;2024-02-26T04:12:30;1.65;;;1.30;;
28266;SDS011;15525;45.568;5.448;2024-02-26T04:14:55;2.05;;;1.48;;
28266;SDS011;15525;45.568;5.448;2024-02-26T04:17:21;2.78;;;1.67;;
28266;SDS011;15525;45.568;5.448;2024-02-26T04:19:46;1.73;;;1.55;;
28266;SDS011;15525;45.568;5.448;2024-02-26T04:22:11;2.75;;;2.25;;
28266;SDS011;15525;45.568;5.448;2024-02-26T04:24:37;3.55;;;2.20;;
28266;SDS011;15525;45.568;5.448;2024-02-26T04:27:02;4.40;;;2.58;;
28266;SDS011;15525;45.568;5.448;2024-02-26T04:29:28;4.30;;;3.30;;
28266;SDS011;15525;45.568;5.448;2024-02-26T04:31:53;3.70;;;3.30;;
28266;SDS011;15525;45.568;5.448;2024-02-26T04:34:18;4.20;;;3.50;;
28266;SDS011;15525;45.568;5.448;2024-02-26T04:36:44;4.70;;;3.60;;
28266;SDS011;15525;45.568;5.448;2024-02-26T04:39:09;5.82;;;3.47;;
28266;SDS011;15525;45.568;5.448;2024-02-26T04:41:35;4.82;;;3.30;;
28266;SDS011;15525;45.568;5.448;2024-02-26T04:44:00;3.92;;;3.05;;
28266;SDS011;15525;45.568;5.448;2024-02-26T04:46:26;4.25;;;3.15;;
28266;SDS011;15525;45.568;5.448;2024-02-26T04:48:53;5.00;;;3.10;;
28266;SDS011;15525;45.568;5.448;2024-02-26T04:51:19;3.67;;;2.80;;
28266;SDS011;15525;45.568;5.448;2024-02-26T04:53:44;3.53;;;2.63;;
28266;SDS011;15525;45.568;5.448;2024-02-26T04:56:09;3.10;;;2.45;;
28266;SDS011;15525;45.568;5.448;2024-02-26T04:58:35;3.15;;;2.25;;
28266;SDS011;15525;45.568;5.448;2024-02-26T05:01:00;2.92;;;2.10;;
28266;SDS011;15525;45.568;5.448;2024-02-26T05:03:26;2.38;;;2.00;;
28266;SDS011;15525;45.568;5.448;2024-02-26T05:05:51;3.13;;;2.10;;
28266;SDS011;15525;45.568;5.448;2024-02-26T05:08:17;2.97;;;2.47;;
28266;SDS011;15525;45.568;5.448;2024-02-26T05:10:42;3.90;;;2.13;;
28266;SDS011;15525;45.568;5.448;2024-02-26T05:13:10;3.35;;;2.30;;
28266;SDS011;15525;45.568;5.448;2024-02-26T05:15:36;2.97;;;1.88;;
28266;SDS011;15525;45.568;5.448;2024-02-26T05:18:02;2.10;;;1.90;;
28266;SDS011;15525;45.568;5.448;2024-02-26T05:20:28;2.97;;;2.67;;
28266;SDS011;15525;45.568;5.448;2024-02-26T05:22:53;2.95;;;2.50;;
28266;SDS011;15525;45.568;5.448;2024-02-26T05:25:19;3.22;;;2.22;;
28266;SDS011;15525;45.568;5.448;2024-02-26T05:27:45;4.05;;;2.97;;
28266;SDS011;15525;45.568;5.448;2024-02-26T05:30:11;4.00;;;2.83;;
28266;SDS011;15525;45.568;5.448;2024-02-26T05:32:36;3.13;;;1.98;;
28266;SDS011;15525;45.568;5.448;2024-02-26T05:35:02;2.78;;;2.00;;
28266;SDS011;15525;45.568;5.448;2024-02-26T05:37:28;2.35;;;1.92;;
28266;SDS011;15525;45.568;5.448;2024-02-26T05:39:54;3.50;;;2.55;;
28266;SDS011;15525;45.568;5.448;2024-02-26T05:42:20;2.47;;;2.28;;
28266;SDS011;15525;45.568;5.448;2024-02-26T05:44:45;3.05;;;2.20;;
28266;SDS011;15525;45.568;5.448;2024-02-26T05:47:10;2.95;;;2.55;;
28266;SDS011;15525;45.568;5.448;2024-02-26T05:49:36;3.17;;;2.45;;
28266;SDS011;15525;45.568;5.448;2024-02-26T05:52:01;2.90;;;2.20;;
28266;SDS011;15525;45.568;5.448;2024-02-26T05:54:27;5.63;;;2.60;;
28266;SDS011;15525;45.568;5.448;2024-02-26T05:56:52;4.22;;;2.97;;
28266;SDS011;15525;45.568;5.448;2024-02-26T05:59:18;5.20;;;3.13;;
28266;SDS011;15525;45.568;5.448;2024-02-26T06:01:43;3.88;;;3.25;;
28266;SDS011;15525;45.568;5.448;2024-02-26T06:04:09;6.72;;;4.20;;
28266;SDS011;15525;45.568;5.448;2024-02-26T06:06:34;5.93;;;4.43;;
28266;SDS011;15525;45.568;5.448;2024-02-26T06:08:59;7.07;;;4.40;;
28266;SDS011;15525;45.568;5.448;2024-02-26T06:11:25;5.80;;;4.57;;
28266;SDS011;15525;45.568;5.448;2024-02-26T06:13:50;7.95;;;5.28;;
28266;SDS011;15525;45.568;5.448;2024-02-26T06:16:16;7.65;;;5.18;;
28266;SDS011;15525;45.568;5.448;2024-02-26T06:18:41;10.95;;;5.53;;
28266;SDS011;15525;45.568;5.448;2024-02-26T06:21:10;7.60;;;5.20;;
28266;SDS011;15525;45.568;5.448;2024-02-26T06:23:36;7.13;;;5.25;;
28266;SDS011;15525;45.568;5.448;2024-02-26T06:26:01;7.93;;;5.40;;
28266;SDS011;15525;45.568;5.448;2024-02-26T06:28:27;7.68;;;5.68;;
28266;SDS011;15525;45.568;5.448;2024-02-26T06:30:55;9.70;;;5.93;;
28266;SDS011;15525;45.568;5.448;2024-02-26T06:33:21;7.80;;;5.28;;
28266;SDS011;15525;45.568;5.448;2024-02-26T06:35:46;6.65;;;3.97;;
28266;SDS011;15525;45.568;5.448;2024-02-26T06:38:12;5.38;;;3.55;;
28266;SDS011;15525;45.568;5.448;2024-02-26T06:40:38;6.15;;;3.80;;
28266;SDS011;15525;45.568;5.448;2024-02-26T06:43:04;7.35;;;4.28;;
28266;SDS011;15525;45.568;5.448;2024-02-26T06:45:29;5.47;;;3.67;;
28266;SDS011;15525;45.568;5.448;2024-02-26T06:47:55;7.10;;;3.72;;
28266;SDS011;15525;45.568;5.448;2024-02-26T06:50:21;6.20;;;4.03;;
28266;SDS011;15525;45.568;5.448;2024-02-26T06:52:47;5.43;;;3.72;;
28266;SDS011;15525;45.568;5.448;2024-02-26T06:55:12;8.07;;;3.95;;
28266;SDS011;15525;45.568;5.448;2024-02-26T06:57:38;5.38;;;3.67;;
28266;SDS011;15525;45.568;5.448;2024-02-26T07:00:03;7.20;;;3.97;;
28266;SDS011;15525;45.568;5.448;2024-02-26T07:02:29;8.07;;;5.60;;
28266;SDS011;15525;45.568;5.448;2024-02-26T07:04:55;8.35;;;5.70;;
28266;SDS011;15525;45.568;5.448;2024-02-26T07:07:23;8.18;;;6.03;;
28266;SDS011;15525;45.568;5.448;2024-02-26T07:09:48;7.45;;;5.45;;
28266;SDS011;15525;45.568;5.448;2024-02-26T07:12:14;8.65;;;5.25;;
28266;SDS011;15525;45.568;5.448;2024-02-26T07:14:41;9.93;;;6.03;;
28266;SDS011;15525;45.568;5.448;2024-02-26T07:17:06;8.35;;;6.50;;
28266;SDS011;15525;45.568;5.448;2024-02-26T07:19:32;9.43;;;6.38;;
28266;SDS011;15525;45.568;5.448;2024-02-26T07:21:57;7.07;;;5.15;;
28266;SDS011;15525;45.568;5.448;2024-02-26T07:24:23;8.60;;;5.60;;
28266;SDS011;15525;45.568;5.448;2024-02-26T07:26:48;8.45;;;5.53;;
28266;SDS011;15525;45.568;5.448;2024-02-26T07:29:13;13.65;;;6.05;;
28266;SDS011;15525;45.568;5.448;2024-02-26T07:31:39;11.40;;;5.45;;
28266;SDS011;15525;45.568;5.448;2024-02-26T07:34:04;8.38;;;4.70;;
28266;SDS011;15525;45.568;5.448;2024-02-26T07:36:30;6.95;;;4.45;;
28266;SDS011;15525;45.568;5.448;2024-02-26T07:38:55;7.40;;;4.72;;
28266;SDS011;15525;45.568;5.448;2024-02-26T07:41:20;6.07;;;4.65;;
28266;SDS011;15525;45.568;5.448;2024-02-26T07:43:46;7.60;;;4.35;;
28266;SDS011;15525;45.568;5.448;2024-02-26T07:46:11;7.55;;;5.03;;
28266;SDS011;15525;45.568;5.448;2024-02-26T07:48:37;6.57;;;5.03;;
28266;SDS011;15525;45.568;5.448;2024-02-26T07:51:03;13.48;;;8.68;;
28266;SDS011;15525;45.568;5.448;2024-02-26T07:53:29;11.02;;;6.88;;
28266;SDS011;15525;45.568;5.448;2024-02-26T07:55:55;8.93;;;5.00;;
28266;SDS011;15525;45.568;5.448;2024-02-26T07:58:21;66.35;;;31.55;;
28266;SDS011;15525;45.568;5.448;2024-02-26T08:00:48;21.50;;;13.18;;
28266;SDS011;15525;45.568;5.448;2024-02-26T08:03:14;16.15;;;9.77;;
28266;SDS011;15525;45.568;5.448;2024-02-26T08:05:40;12.25;;;6.38;;
28266;SDS011;15525;45.568;5.448;2024-02-26T08:08:07;8.52;;;5.57;;
28266;SDS011;15525;45.568;5.448;2024-02-26T08:10:33;10.27;;;5.72;;
28266;SDS011;15525;45.568;5.448;2024-02-26T08:12:58;8.43;;;5.70;;
28266;SDS011;15525;45.568;5.448;2024-02-26T08:15:30;8.05;;;5.43;;
28266;SDS011;15525;45.568;5.448;2024-02-26T08:17:56;10.70;;;6.82;;
28266;SDS011;15525;45.568;5.448;2024-02-26T08:20:22;9.98;;;7.07;;
28266;SDS011;15525;45.568;5.448;2024-02-26T08:22:47;9.88;;;6.57;;
28266;SDS011;15525;45.568;5.448;2024-02-26T08:25:12;9.10;;;5.97;;
28266;SDS011;15525;45.568;5.448;2024-02-26T08:27:38;61.80;;;24.80;;
28266;SDS011;15525;45.568;5.448;2024-02-26T08:30:03;41.92;;;18.20;;
28266;SDS011;15525;45.568;5.448;2024-02-26T08:32:29;29.48;;;17.92;;
28266;SDS011;15525;45.568;5.448;2024-02-26T08:34:55;20.17;;;12.68;;
28266;SDS011;15525;45.568;5.448;2024-02-26T08:37:20;8.20;;;4.43;;
28266;SDS011;15525;45.568;5.448;2024-02-26T08:39:46;4.97;;;3.30;;
28266;SDS011;15525;45.568;5.448;2024-02-26T08:42:12;6.30;;;3.25;;
28266;SDS011;15525;45.568;5.448;2024-02-26T08:44:37;4.40;;;2.50;;
28266;SDS011;15525;45.568;5.448;2024-02-26T08:47:02;4.50;;;2.33;;
28266;SDS011;15525;45.568;5.448;2024-02-26T08:49:28;3.58;;;2.28;;
28266;SDS011;15525;45.568;5.448;2024-02-26T08:51:53;4.05;;;2.22;;
28266;SDS011;15525;45.568;5.448;2024-02-26T08:54:19;2.95;;;1.65;;
28266;SDS011;15525;45.568;5.448;2024-02-26T08:56:44;2.67;;;1.50;;
28266;SDS011;15525;45.568;5.448;2024-02-26T08:59:09;4.20;;;1.40;;
28266;SDS011;15525;45.568;5.448;2024-02-26T09:01:35;2.45;;;1.48;;
28266;SDS011;15525;45.568;5.448;2024-02-26T09:04:00;4.18;;;1.40;;
28266;SDS011;15525;45.568;5.448;2024-02-26T09:06:25;2.15;;;1.30;;
28266;SDS011;15525;45.568;5.448;2024-02-26T09:08:51;2.65;;;1.80;;
28266;SDS011;15525;45.568;5.448;2024-02-26T09:11:16;3.70;;;2.00;;
28266;SDS011;15525;45.568;5.448;2024-02-26T09:13:42;3.22;;;1.95;;
28266;SDS011;15525;45.568;5.448;2024-02-26T09:16:07;3.05;;;2.20;;
28266;SDS011;15525;45.568;5.448;2024-02-26T09:18:33;3.88;;;2.55;;
28266;SDS011;15525;45.568;5.448;2024-02-26T09:20:58;7.75;;;4.03;;
28266;SDS011;15525;45.568;5.448;2024-02-26T09:23:23;9.13;;;4.85;;
28266;SDS011;15525;45.568;5.448;2024-02-26T09:25:49;7.25;;;4.50;;
28266;SDS011;15525;45.568;5.448;2024-02-26T09:28:14;8.02;;;4.35;;
28266;SDS011;15525;45.568;5.448;2024-02-26T09:30:42;5.53;;;3.33;;
28266;SDS011;15525;45.568;5.448;2024-02-26T09:33:08;4.28;;;2.15;;
28266;SDS011;15525;45.568;5.448;2024-02-26T09:35:33;4.95;;;2.40;;
28266;SDS011;15525;45.568;5.448;2024-02-26T09:37:59;10.68;;;7.00;;
28266;SDS011;15525;45.568;5.448;2024-02-26T09:40:24;11.05;;;6.10;;
28266;SDS011;15525;45.568;5.448;2024-02-26T09:42:50;6.00;;;3.15;;
28266;SDS011;15525;45.568;5.448;2024-02-26T09:45:19;4.75;;;2.75;;
28266;SDS011;15525;45.568;5.448;2024-02-26T09:47:48;3.63;;;1.92;;
28266;SDS011;15525;45.568;5.448;2024-02-26T09:50:15;1.90;;;1.48;;
28266;SDS011;15525;45.568;5.448;2024-02-26T09:52:42;3.22;;;1.58;;
28266;SDS011;15525;45.568;5.448;2024-02-26T09:55:08;2.58;;;1.30;;
28266;SDS011;15525;45.568;5.448;2024-02-26T09:57:37;2.88;;;1.30;;
28266;SDS011;15525;45.568;5.448;2024-02-26T10:00:03;1.65;;;1.25;;
28266;SDS011;15525;45.568;5.448;2024-02-26T10:02:33;2.47;;;1.30;;
28266;SDS011;15525;45.568;5.448;2024-02-26T10:05:02;1.75;;;1.40;;
28266;SDS011;15525;45.568;5.448;2024-02-26T10:07:32;1.45;;;1.20;;
28266;SDS011;15525;45.568;5.448;2024-02-26T10:09:58;1.48;;;1.10;;
28266;SDS011;15525;45.568;5.448;2024-02-26T10:12:23;2.70;;;1.10;;
28266;SDS011;15525;45.568;5.448;2024-02-26T10:14:51;3.85;;;2.33;;
28266;SDS011;15525;45.568;5.448;2024-02-26T10:17:16;7.18;;;2.58;;
28266;SDS011;15525;45.568;5.448;2024-02-26T10:19:43;1.80;;;1.05;;
28266;SDS011;15525;45.568;5.448;2024-02-26T10:22:09;1.35;;;0.95;;
28266;SDS011;15525;45.568;5.448;2024-02-26T10:24:34;5.60;;;1.20;;
28266;SDS011;15525;45.568;5.448;2024-02-26T10:26:59;2.35;;;1.00;;
28266;SDS011;15525;45.568;5.448;2024-02-26T10:29:25;1.10;;;0.80;;
28266;SDS011;15525;45.568;5.448;2024-02-26T10:31:51;0.80;;;0.80;;
28266;SDS011;15525;45.568;5.448;2024-02-26T10:34:17;1.15;;;0.98;;
28266;SDS011;15525;45.568;5.448;2024-02-26T10:36:43;2.97;;;0.85;;
28266;SDS011;15525;45.568;5.448;2024-02-26T10:39:09;1.48;;;0.98;;
28266;SDS011;15525;45.568;5.448;2024-02-26T10:41:36;2.03;;;1.10;;
28266;SDS011;15525;45.568;5.448;2024-02-26T10:44:03;2.55;;;1.00;;
28266;SDS011;15525;45.568;5.448;2024-02-26T10:46:28;1.52;;;0.98;;
28266;SDS011;15525;45.568;5.448;2024-02-26T10:48:54;0.88;;;0.88;;
28266;SDS011;15525;45.568;5.448;2024-02-26T10:51:20;1.83;;;1.15;;
28266;SDS011;15525;45.568;5.448;2024-02-26T10:53:50;1.02;;;0.80;;
28266;SDS011;15525;45.568;5.448;2024-02-26T10:56:21;2.38;;;0.93;;
28266;SDS011;15525;45.568;5.448;2024-02-26T10:58:52;2.63;;;0.90;;
28266;SDS011;15525;45.568;5.448;2024-02-26T11:01:18;1.05;;;0.80;;
28266;SDS011;15525;45.568;5.448;2024-02-26T11:03:45;1.90;;;0.75;;
28266;SDS011;15525;45.568;5.448;2024-02-26T11:06:11;0.73;;;0.70;;
28266;SDS011;15525;45.568;5.448;2024-02-26T11:08:37;0.85;;;0.65;;
28266;SDS011;15525;45.568;5.448;2024-02-26T11:11:03;0.52;;;0.52;;
28266;SDS011;15525;45.568;5.448;2024-02-26T11:13:30;0.82;;;0.70;;
28266;SDS011;15525;45.568;5.448;2024-02-26T11:15:57;1.23;;;0.60;;
28266;SDS011;15525;45.568;5.448;2024-02-26T11:18:23;1.52;;;0.60;;
28266;SDS011;15525;45.568;5.448;2024-02-26T11:20:51;1.05;;;0.60;;
28266;SDS011;15525;45.568;5.448;2024-02-26T11:23:21;0.60;;;0.52;;
28266;SDS011;15525;45.568;5.448;2024-02-26T11:25:47;0.80;;;0.60;;
28266;SDS011;15525;45.568;5.448;2024-02-26T11:28:14;1.38;;;0.70;;
28266;SDS011;15525;45.568;5.448;2024-02-26T11:30:44;1.38;;;0.80;;
28266;SDS011;15525;45.568;5.448;2024-02-26T11:33:12;1.10;;;0.80;;
28266;SDS011;15525;45.568;5.448;2024-02-26T11:35:40;0.88;;;0.75;;
28266;SDS011;15525;45.568;5.448;2024-02-26T11:38:05;2.00;;;0.90;;
28266;SDS011;15525;45.568;5.448;2024-02-26T11:40:32;2.58;;;0.90;;
28266;SDS011;15525;45.568;5.448;2024-02-26T11:42:59;1.27;;;0.63;;
28266;SDS011;15525;45.568;5.448;2024-02-26T11:48:14;2.13;;;0.90;;
28266;SDS011;15525;45.568;5.448;2024-02-26T11:50:46;7.05;;;3.22;;
28266;SDS011;15525;45.568;5.448;2024-02-26T11:58:44;0.85;;;0.82;;
28266;SDS011;15525;45.568;5.448;2024-02-26T12:04:01;2.05;;;0.65;;
28266;SDS011;15525;45.568;5.448;2024-02-26T12:06:27;1.20;;;0.70;;
28266;SDS011;15525;45.568;5.448;2024-02-26T12:08:53;0.77;;;0.70;;
28266;SDS011;15525;45.568;5.448;2024-02-26T12:11:20;2.15;;;0.80;;
28266;SDS011;15525;45.568;5.448;2024-02-26T12:13:48;0.60;;;0.52;;
28266;SDS011;15525;45.568;5.448;2024-02-26T12:19:08;0.98;;;0.70;;
28266;SDS011;15525;45.568;5.448;2024-02-26T12:21:37;1.23;;;0.70;;
28266;SDS011;15525;45.568;5.448;2024-02-26T12:24:13;0.50;;;0.50;;
28266;SDS011;15525;45.568;5.448;2024-02-26T12:26:41;0.70;;;0.70;;
28266;SDS011;15525;45.568;5.448;2024-02-26T12:29:07;0.60;;;0.60;;
28266;SDS011;15525;45.568;5.448;2024-02-26T12:31:33;0.65;;;0.60;;
28266;SDS011;15525;45.568;5.448;2024-02-26T12:34:01;1.10;;;0.70;;
28266;SDS011;15525;45.568;5.448;2024-02-26T12:36:27;1.83;;;0.70;;
28266;SDS011;15525;45.568;5.448;2024-02-26T12:38:53;0.70;;;0.70;;
28266;SDS011;15525;45.568;5.448;2024-02-26T12:41:19;1.23;;;0.63;;
28266;SDS011;15525;45.568;5.448;2024-02-26T12:43:45;1.30;;;0.80;;
28266;SDS011;15525;45.568;5.448;2024-02-26T12:46:11;0.80;;;0.70;;
28266;SDS011;15525;45.568;5.448;2024-02-26T12:48:38;1.00;;;0.73;;
28266;SDS011;15525;45.568;5.448;2024-02-26T12:51:04;1.85;;;0.80;;
28266;SDS011;15525;45.568;5.448;2024-02-26T12:53:30;1.15;;;0.70;;
28266;SDS011;15525;45.568;5.448;2024-02-26T12:55:56;2.10;;;0.90;;
28266;SDS011;15525;45.568;5.448;2024-02-26T12:58:23;4.05;;;0.80;;
28266;SDS011;15525;45.568;5.448;2024-02-26T13:00:53;1.42;;;0.77;;
28266;SDS011;15525;45.568;5.448;2024-02-26T13:03:20;1.17;;;0.70;;
28266;SDS011;15525;45.568;5.448;2024-02-26T13:05:47;1.00;;;0.60;;
28266;SDS011;15525;45.568;5.448;2024-02-26T13:08:17;2.03;;;0.73;;
28266;SDS011;15525;45.568;5.448;2024-02-26T13:10:43;0.70;;;0.70;;
28266;SDS011;15525;45.568;5.448;2024-02-26T13:13:08;1.83;;;0.73;;
28266;SDS011;15525;45.568;5.448;2024-02-26T13:15:33;1.15;;;0.77;;
28266;SDS011;15525;45.568;5.448;2024-02-26T13:17:59;1.25;;;0.80;;
28266;SDS011;15525;45.568;5.448;2024-02-26T13:20:34;0.65;;;0.52;;
28266;SDS011;15525;45.568;5.448;2024-02-26T13:23:05;0.65;;;0.65;;
28266;SDS011;15525;45.568;5.448;2024-02-26T13:25:31;0.40;;;0.40;;
28266;SDS011;15525;45.568;5.448;2024-02-26T13:30:52;1.98;;;0.70;;
28266;SDS011;15525;45.568;5.448;2024-02-26T13:33:18;0.70;;;0.52;;
28266;SDS011;15525;45.568;5.448;2024-02-26T13:35:44;0.68;;;0.50;;
28266;SDS011;15525;45.568;5.448;2024-02-26T13:38:10;1.13;;;0.63;;
28266;SDS011;15525;45.568;5.448;2024-02-26T13:40:37;1.00;;;0.70;;
28266;SDS011;15525;45.568;5.448;2024-02-26T13:43:02;1.00;;;0.68;;
28266;SDS011;15525;45.568;5.448;2024-02-26T13:45:28;1.17;;;0.77;;
28266;SDS011;15525;45.568;5.448;2024-02-26T13:47:54;0.52;;;0.52;;
28266;SDS011;15525;45.568;5.448;2024-02-26T13:50:19;0.68;;;0.57;;
28266;SDS011;15525;45.568;5.448;2024-02-26T13:52:46;0.80;;;0.63;;
28266;SDS011;15525;45.568;5.448;2024-02-26T13:55:12;1.10;;;0.63;;
28266;SDS011;15525;45.568;5.448;2024-02-26T13:57:39;1.40;;;0.70;;
28266;SDS011;15525;45.568;5.448;2024-02-26T14:00:05;1.10;;;0.68;;
28266;SDS011;15525;45.568;5.448;2024-02-26T14:02:32;2.38;;;1.00;;
28266;SDS011;15525;45.568;5.448;2024-02-26T14:05:01;1.27;;;0.90;;
28266;SDS011;15525;45.568;5.448;2024-02-26T14:07:28;1.13;;;0.90;;
28266;SDS011;15525;45.568;5.448;2024-02-26T14:09:54;1.42;;;1.00;;
28266;SDS011;15525;45.568;5.448;2024-02-26T14:12:19;0.95;;;0.60;;
28266;SDS011;15525;45.568;5.448;2024-02-26T14:14:45;1.13;;;0.60;;
28266;SDS011;15525;45.568;5.448;2024-02-26T14:17:13;2.15;;;0.88;;
28266;SDS011;15525;45.568;5.448;2024-02-26T14:19:39;1.92;;;0.73;;
28266;SDS011;15525;45.568;5.448;2024-02-26T14:22:10;1.02;;;0.70;;
28266;SDS011;15525;45.568;5.448;2024-02-26T14:24:36;1.48;;;0.90;;
28266;SDS011;15525;45.568;5.448;2024-02-26T14:27:01;3.05;;;1.30;;
28266;SDS011;15525;45.568;5.448;2024-02-26T14:29:27;1.95;;;0.80;;
28266;SDS011;15525;45.568;5.448;2024-02-26T14:31:53;1.90;;;0.90;;
28266;SDS011;15525;45.568;5.448;2024-02-26T14:34:18;1.70;;;0.90;;
28266;SDS011;15525;45.568;5.448;2024-02-26T14:36:44;2.47;;;0.90;;
28266;SDS011;15525;45.568;5.448;2024-02-26T14:39:09;1.73;;;1.10;;
28266;SDS011;15525;45.568;5.448;2024-02-26T14:41:37;2.15;;;0.82;;
28266;SDS011;15525;45.568;5.448;2024-02-26T14:44:03;1.48;;;0.60;;
28266;SDS011;15525;45.568;5.448;2024-02-26T14:46:29;1.95;;;1.17;;
28266;SDS011;15525;45.568;5.448;2024-02-26T14:48:54;1.30;;;0.60;;
28266;SDS011;15525;45.568;5.448;2024-02-26T14:51:21;0.77;;;0.68;;
28266;SDS011;15525;45.568;5.448;2024-02-26T14:53:47;1.35;;;0.98;;
28266;SDS011;15525;45.568;5.448;2024-02-26T14:56:13;1.75;;;0.88;;
28266;SDS011;15525;45.568;5.448;2024-02-26T14:58:38;1.73;;;1.38;;